Black Watch — C6RS5 — position and weather

sailwx.info

Track history (hours):
 
Tides and Currents Weather Stations Pressure Air Temp Water Temp Dewpoint Dewpoint Depression Visibility Wind Speed Wind Dir Waves Ship Positions

Black Watch

Last reported at 2017-Jun-26 08:28 UTC. Time now 2017-Jun-26 08:48 UTC.
Position N 53°33' E 009°56'.

Length 205 m; draft 7.5 m.

Type: Passenger vessel. MMSI: 311166000.

Date/timePositionNaut miles runAvg speedWind from/ knotsBaromVisibWave heightAir tempDewpointWater temp
2017-Jun-26 08:28N 53°33' E 009°56'0 0.0
2017-Jun-26 07:58N 53°33' E 009°56'0 0.0
2017-Jun-26 07:28N 53°33' E 009°56'0 0.0
2017-Jun-26 06:58N 53°33' E 009°56'0 0.0
2017-Jun-26 06:28N 53°33' E 009°56'0 0.0
2017-Jun-26 05:58N 53°33' E 009°56'0 0.0
2017-Jun-26 05:28N 53°33' E 009°56'0 0.0
2017-Jun-26 04:58N 53°33' E 009°56'0 0.0
2017-Jun-26 04:25N 53°33' E 009°56'0 0.0
2017-Jun-26 03:58N 53°33' E 009°56'0 0.0
2017-Jun-26 03:28N 53°33' E 009°56'0 0.0
2017-Jun-26 02:58N 53°33' E 009°56'0 0.0
2017-Jun-26 02:28N 53°33' E 009°56'0 0.0
2017-Jun-26 01:58N 53°33' E 009°56'0 0.0
2017-Jun-26 01:28N 53°33' E 009°56'0 0.0
2017-Jun-26 00:58N 53°33' E 009°56'0 0.0
2017-Jun-26 00:28N 53°33' E 009°56'0 0.0
2017-Jun-25 23:58N 53°33' E 009°56'0 0.0
2017-Jun-25 23:28N 53°33' E 009°56'0 0.0
2017-Jun-25 22:58N 53°33' E 009°56'0 0.3
2017-Jun-25 22:30N 53°33' E 009°56'4 7.9
2017-Jun-25 22:01N 53°33' E 009°50'510.2
2017-Jun-25 21:31N 53°34' E 009°41'714.1
2017-Jun-25 21:00N 53°38' E 009°32'612.8
2017-Jun-25 20:30N 53°44' E 009°27'714.3
2017-Jun-25 20:00N 53°50' E 009°21'713.8
2017-Jun-25 19:30N 53°53' E 009°10'1 2.3
2017-Jun-25 19:01N 53°54' E 009°09'1 1.1
2017-Jun-25 18:30N 53°54' E 009°09'3 6.2
2017-Jun-25 18:00N 53°56' E 009°13'4 8.3
2017-Jun-25 17:30N 53°59' E 009°17'4 8.3
2017-Jun-25 17:00N 54°04' E 009°19'5 8.4
2017-Jun-25 16:27N 54°08' E 009°20'23 7.7
2017-Jun-25 13:29N 54°22' E 009°52'4 7.9
2017-Jun-25 12:58N 54°21' E 009°58'3 6.5
2017-Jun-25 12:30N 54°22' E 010°03'3 6.5
2017-Jun-25 12:00N 54°22' E 010°09'0 0.0
2017-Jun-25 11:30N 54°22' E 010°08'0 0.0
2017-Jun-25 11:00N 54°22' E 010°09'0 0.0
2017-Jun-25 10:30N 54°22' E 010°08'7 2.1
2017-Jun-25 07:19N 54°28' E 010°15'3 8.5
2017-Jun-25 06:55N 54°30' E 010°18'3 6.2
2017-Jun-25 06:30N 54°33' E 010°19'2 0.4
2017-Jun-25 01:14N 54°34' E 010°22'0 0.2
2017-Jun-25 00:59N 54°34' E 010°22'0 0.0
2017-Jun-25 00:29N 54°34' E 010°22'0 0.0
2017-Jun-24 23:56N 54°34' E 010°22'0 0.0
2017-Jun-24 23:29N 54°34' E 010°22'0 0.0
2017-Jun-24 23:00N 54°34' E 010°22'2 4.6
2017-Jun-24 22:30N 54°35' E 010°26'612.5
2017-Jun-24 22:00N 54°35' E 010°37'816.6
2017-Jun-24 21:30N 54°36' E 010°51'816.4
2017-Jun-24 21:00N 54°36' E 011°05'816.1
2017-Jun-24 20:30N 54°34' E 011°19'816.1
2017-Jun-24 19:59N 54°27' E 011°25'2016.5
2017-Jun-24 18:48N 54°08' E 011°14'2 0.1
2017-Jun-24 03:19N 54°08' E 011°10'310.4
2017-Jun-24 03:00N 54°11' E 011°14'16 9.8
2017-Jun-24 01:23N 54°25' E 011°26'13 9.2
2017-Jun-24 00:01N 54°34' E 011°12'010.2
2017-Jun-24 00:00N 54°34' E 011°12'510.3
2017-Jun-23 23:30N 54°35' E 011°04'510.5
2017-Jun-23 23:00N 54°35' E 010°55'610.5
2017-Jun-23 22:28N 54°34' E 010°45'48 2.3
2017-Jun-23 01:30N 54°12' E 009°32'4 8.4
2017-Jun-23 00:59N 54°10' E 009°25'9 5.5
2017-Jun-22 23:18N 54°02' E 009°18'2 7.7
2017-Jun-22 23:00N 53°59' E 009°17'4 8.2
2017-Jun-22 22:30N 53°56' E 009°13'3 6.4
2017-Jun-22 21:58N 53°54' E 009°09'0 0.0
2017-Jun-22 21:28N 53°54' E 009°09'0 0.0
2017-Jun-22 21:01N 53°54' E 009°09'0 0.1
2017-Jun-22 20:31N 53°54' E 009°09'2 3.6
2017-Jun-22 20:01N 53°53' E 009°06'0 0.4
2017-Jun-22 19:26N 53°53' E 009°06'0 0.1
2017-Jun-22 18:59N 53°53' E 009°05'0 0.2
2017-Jun-22 18:29N 53°53' E 009°05'0 0.0
2017-Jun-22 17:59N 53°53' E 009°05'0 0.1
2017-Jun-22 17:28N 53°53' E 009°05'0 0.0
2017-Jun-22 16:52N 53°53' E 009°05'0 0.9
2017-Jun-22 16:30N 53°53' E 009°05'510.8
2017-Jun-22 16:00N 53°51' E 008°56'713.8
2017-Jun-22 15:30N 53°51' E 008°45'612.5
2017-Jun-22 15:00N 53°57' E 008°39'714.4
2017-Jun-22 14:30N 53°59' E 008°27'1514.8
2017-Jun-22 13:30N 53°59' E 008°02'713.0
2017-Jun-22 12:58N 53°58' E 007°50'511.8
2017-Jun-22 12:30N 53°57' E 007°41'611.8
2017-Jun-22 12:00N 53°55' E 007°31'612.0
2017-Jun-22 11:29N 53°54' E 007°21'612.1
2017-Jun-22 11:00N 53°52' E 007°11'712.3
2017-Jun-22 10:28N 53°51' E 007°01'1212.5
2017-Jun-22 09:30N 53°48' E 006°41'712.9
2017-Jun-22 08:57N 53°46' E 006°29'612.9
2017-Jun-22 08:29N 53°45' E 006°19'713.8
2017-Jun-22 08:00N 53°42' E 006°08'713.8
2017-Jun-22 07:29N 53°40' E 005°57'714.2
2017-Jun-22 07:00N 53°38' E 005°46'714.7
2017-Jun-22 06:31N 53°36' E 005°35'714.6
2017-Jun-22 06:01N 53°34' E 005°23'814.9
2017-Jun-22 05:30N 53°31' E 005°11'714.7
2017-Jun-22 05:01N 53°29' E 004°59'815.1
2017-Jun-22 04:31N 53°26' E 004°48'714.5
2017-Jun-22 04:00N 53°20' E 004°40'815.4
2017-Jun-22 03:31N 53°13' E 004°34'815.4
2017-Jun-22 03:01N 53°07' E 004°27'815.1
2017-Jun-22 02:31N 53°01' E 004°20'815.5
2017-Jun-22 02:01N 52°53' E 004°15'714.7
2017-Jun-22 01:31N 52°47' E 004°08'714.0
2017-Jun-22 01:00N 52°43' E 003°59'917.5
2017-Jun-22 00:30N 52°36' E 003°50'918.9
2017-Jun-22 00:00N 52°29' E 003°40'1019.1
2017-Jun-21 23:30N 52°22' E 003°30'918.9
2017-Jun-21 23:00N 52°14' E 003°19'918.7
2017-Jun-21 22:30N 52°08' E 003°08'918.4
2017-Jun-21 22:00N 52°03' E 002°56'918.0
2017-Jun-21 21:30N 51°58' E 002°44'917.6
2017-Jun-21 21:00N 51°54' E 002°31'917.0
2017-Jun-21 20:27N 51°48' E 002°19'816.4
2017-Jun-21 20:00N 51°43' E 002°10'816.1
2017-Jun-21 19:29N 51°37' E 002°01'816.2
2017-Jun-21 19:00N 51°32' E 001°51'815.7
2017-Jun-21 18:30N 51°25' E 001°46'815.2
2017-Jun-21 18:00N 51°18' E 001°42'714.3
2017-Jun-21 17:30N 51°12' E 001°37'713.9
2017-Jun-21 17:00N 51°07' E 001°28'6 1.0
2017-Jun-21 11:13N 51°07' E 001°19'0 0.0
2017-Jun-21 10:49N 51°07' E 001°19'0 0.0
2017-Jun-21 10:28N 51°07' E 001°19'0 0.0
2017-Jun-21 09:49N 51°07' E 001°19'0 0.0
2017-Jun-21 09:19N 51°07' E 001°19'0 0.0
2017-Jun-21 08:52N 51°07' E 001°19'0 0.0
2017-Jun-21 08:22N 51°07' E 001°19'0 0.0
2017-Jun-21 07:01N 51°07' E 001°19'0 0.0
2017-Jun-21 06:52N 51°07' E 001°19'0 0.0
2017-Jun-21 06:10N 51°07' E 001°19'0 0.0
2017-Jun-21 05:55N 51°07' E 001°19'0 0.0
2017-Jun-21 05:19N 51°07' E 001°19'0 0.0
2017-Jun-21 04:56N 51°07' E 001°19'0 0.2
2017-Jun-21 04:26N 51°07' E 001°20'3 7.6
2017-Jun-21 04:00N 51°07' E 001°25'611.1
2017-Jun-21 03:30N 51°09' E 001°33'815.6
2017-Jun-21 03:00N 51°15' E 001°41'917.3
2017-Jun-21 02:31N 51°24' E 001°45'917.4
2017-Jun-21 02:00N 51°31' E 001°51'816.1
2017-Jun-21 01:31N 51°38' E 001°58'816.2
2017-Jun-21 01:00N 51°44' E 002°08'816.1
2017-Jun-21 00:30N 51°50' E 002°17'816.0
2017-Jun-21 00:01N 51°55' E 002°26'714.3
2017-Jun-20 23:30N 52°02' E 002°27'815.7
2017-Jun-20 23:00N 52°10' E 002°27'815.8
2017-Jun-20 22:30N 52°18' E 002°27'816.0
2017-Jun-20 22:00N 52°26' E 002°27'612.5
2017-Jun-20 21:30N 52°32' E 002°27'612.3
2017-Jun-20 21:00N 52°38' E 002°27'612.8
2017-Jun-20 20:30N 52°45' E 002°27'612.9
2017-Jun-20 20:00N 52°51' E 002°27'713.2
2017-Jun-20 19:30N 52°58' E 002°27'713.3
2017-Jun-20 19:00N 53°05' E 002°27'713.5
2017-Jun-20 18:31N 53°11' E 002°27'713.7
2017-Jun-20 18:01N 53°18' E 002°27'713.7
2017-Jun-20 17:31N 53°25' E 002°27'713.7
2017-Jun-20 17:00N 53°32' E 002°27'613.2
2017-Jun-20 16:30N 53°37' E 002°19'713.3
2017-Jun-20 16:00N 53°42' E 002°11'713.4
2017-Jun-20 15:30N 53°46' E 002°04'713.3
2017-Jun-20 15:00N 53°51' E 001°56'1513.1
2017-Jun-20 13:52N 54°02' E 001°38'513.0
2017-Jun-20 13:30N 54°05' E 001°32'3213.0
2017-Jun-20 11:04N 54°31' E 001°01'113.2
2017-Jun-20 11:00N 54°32' E 001°00'1313.3
2017-Jun-20 10:03N 54°43' E 000°51'113.0
2017-Jun-20 09:59N 54°44' E 000°50'713.0
2017-Jun-20 09:28N 54°50' E 000°45'613.0
2017-Jun-20 08:59N 54°56' E 000°40'712.9
2017-Jun-20 08:24N 55°03' E 000°35'712.7
2017-Jun-20 07:51N 55°09' E 000°30'412.7
2017-Jun-20 07:30N 55°13' E 000°26'612.8
2017-Jun-20 07:00N 55°19' E 000°22'3212.9
2017-Jun-20 04:29N 55°48' W 000°03'1412.9
2017-Jun-20 03:24N 56°01' W 000°13'1513.0
2017-Jun-20 02:14N 56°14' W 000°25'313.0
2017-Jun-20 02:00N 56°17' W 000°28'613.1
2017-Jun-20 01:30N 56°23' W 000°33'612.9
2017-Jun-20 01:00N 56°29' W 000°37'1013.7
2017-Jun-20 00:15N 56°38' W 000°45'417.6
2017-Jun-20 00:00N 56°42' W 000°48'917.7
2017-Jun-19 23:30N 56°50' W 000°55'1017.9
2017-Jun-19 22:57N 56°59' W 001°03'3318.0
2017-Jun-19 21:08N 57°29' W 001°29'218.6
2017-Jun-19 21:01N 57°30' W 001°31'67 3.0
2017-Jun-18 22:57N 58°29' W 002°33'5 9.7
2017-Jun-18 22:25N 58°34' W 002°30'4 9.8
2017-Jun-18 22:00N 58°38' W 002°28'610.1
2017-Jun-18 21:24N 58°44' W 002°28'510.7
2017-Jun-18 20:55N 58°49' W 002°29'512.6
2017-Jun-18 20:31N 58°54' W 002°30'714.4
2017-Jun-18 19:59N 58°59' W 002°40'715.3
2017-Jun-18 19:30N 59°01' W 002°54'2 4.5
2017-Jun-18 18:58N 59°00' W 002°58'0 0.0
2017-Jun-18 18:28N 59°00' W 002°58'0 0.0
2017-Jun-18 17:58N 59°00' W 002°58'0 0.0
2017-Jun-18 17:19N 59°00' W 002°58'0 0.0
2017-Jun-18 16:58N 59°00' W 002°58'0 0.0
2017-Jun-18 16:25N 59°00' W 002°58'0 0.0
2017-Jun-18 15:55N 59°00' W 002°58'0 0.0
2017-Jun-18 15:16N 59°00' W 002°58'0 0.0
2017-Jun-18 14:58N 59°00' W 002°58'0 0.0
2017-Jun-18 13:58N 59°00' W 002°58'0 0.0
2017-Jun-18 13:28N 59°00' W 002°58'0 0.0
2017-Jun-18 12:58N 59°00' W 002°58'0 0.0
2017-Jun-18 12:28N 59°00' W 002°58'0 0.0
2017-Jun-18 11:58N 59°00' W 002°58'0 0.0
2017-Jun-18 11:28N 59°00' W 002°58'0 0.0
2017-Jun-18 10:58N 59°00' W 002°58'0 0.0
2017-Jun-18 10:28N 59°00' W 002°58'0 0.0
2017-Jun-18 09:58N 59°00' W 002°58'0 0.0
2017-Jun-18 09:28N 59°00' W 002°58'0 0.0
2017-Jun-18 08:58N 59°00' W 002°58'0 0.0
2017-Jun-18 08:28N 59°00' W 002°58'0 0.0
2017-Jun-18 07:58N 59°00' W 002°58'0 0.0
2017-Jun-18 07:28N 59°00' W 002°58'0 0.0
2017-Jun-18 06:58N 59°00' W 002°58'0 0.0
2017-Jun-18 06:28N 59°00' W 002°58'0 0.0
2017-Jun-18 05:58N 59°00' W 002°58'0 0.0
2017-Jun-18 05:28N 59°00' W 002°58'0 0.0
2017-Jun-18 04:58N 59°00' W 002°58'0 0.0
2017-Jun-18 04:28N 59°00' W 002°58'0 0.0
2017-Jun-18 03:58N 59°00' W 002°58'0 0.0
2017-Jun-18 03:28N 59°00' W 002°58'0 0.0
2017-Jun-18 02:58N 59°00' W 002°58'0 0.0
2017-Jun-18 02:28N 59°00' W 002°58'0 0.0
2017-Jun-18 01:58N 59°00' W 002°58'0 0.0
2017-Jun-18 01:28N 59°00' W 002°58'0 0.0
2017-Jun-18 00:58N 59°00' W 002°58'0 0.0
2017-Jun-18 00:28N 59°00' W 002°58'0 0.0
2017-Jun-17 23:58N 59°00' W 002°58'0 0.0
2017-Jun-17 23:19N 59°00' W 002°58'0 0.0
2017-Jun-17 22:58N 59°00' W 002°58'0 0.0
2017-Jun-17 22:25N 59°00' W 002°58'0 0.0
2017-Jun-17 21:58N 59°00' W 002°58'0 0.0
2017-Jun-17 21:28N 59°00' W 002°58'0 0.0
2017-Jun-17 20:58N 59°00' W 002°58'0 0.0
2017-Jun-17 20:28N 59°00' W 002°58'0 0.0
2017-Jun-17 19:52N 59°00' W 002°58'0 0.0
2017-Jun-17 19:28N 59°00' W 002°58'0 0.0
2017-Jun-17 18:58N 59°00' W 002°58'0 0.0
2017-Jun-17 18:28N 59°00' W 002°58'0 0.0
2017-Jun-17 18:00N 59°00' W 002°58'1 1.0
2017-Jun-17 17:30N 59°01' W 002°58'5 9.6
2017-Jun-17 17:00N 59°00' W 002°49'612.8
2017-Jun-17 16:30N 58°58' W 002°37'714.7
2017-Jun-17 16:00N 58°51' W 002°40'917.1
2017-Jun-17 15:30N 58°45' W 002°51'816.2
2017-Jun-17 15:00N 58°43' W 003°06'1818.3
2017-Jun-17 14:00N 58°43' W 003°42'918.8
2017-Jun-17 13:30N 58°43' W 003°60'918.5
2017-Jun-17 13:00N 58°42' W 004°17'3416.8
2017-Jun-17 10:59N 58°32' W 005°20'2517.9
2017-Jun-17 09:35N 58°10' W 005°40'417.8
2017-Jun-17 09:21N 58°06' W 005°44'2517.6
2017-Jun-17 07:55N 57°42' W 006°01'1017.7
2017-Jun-17 07:20N 57°32' W 006°04'617.9
2017-Jun-17 07:00N 57°26' W 006°07'10 5.6
2017-Jun-17 05:16N 57°36' W 006°06'31 4.2
2017-Jun-16 21:49N 57°05' W 006°18'14 9.9
2017-Jun-16 20:24N 57°02' W 005°53'511.4
2017-Jun-16 19:55N 57°06' W 005°47'410.5
2017-Jun-16 19:30N 57°08' W 005°40'4 6.1
2017-Jun-16 18:50N 57°06' W 005°33'511.7
2017-Jun-16 18:22N 57°08' W 005°43'512.2
2017-Jun-16 17:59N 57°05' W 005°49'34 6.1
2017-Jun-16 12:24N 56°30' W 005°43'4 9.2
2017-Jun-16 12:00N 56°28' W 005°39'611.7
2017-Jun-16 11:30N 56°22' W 005°40'  
Track history (hours):
 
Tides and Currents Weather Stations Pressure Air Temp Water Temp Dewpoint Dewpoint Depression Visibility Wind Speed Wind Dir Waves Ship Positions

Black Watch

Last reported at 2017-Jun-26 08:28 UTC. Time now 2017-Jun-26 08:48 UTC.
Position N 53°33' E 009°56'.

Length 205 m; draft 7.5 m.

Type: Passenger vessel. MMSI: 311166000.

Date/timePositionNaut miles runAvg speedWind from/ knotsBaromVisibWave heightAir tempDewpointWater temp
2017-Jun-26 08:28N 53°33' E 009°56'0 0.0
2017-Jun-26 07:58N 53°33' E 009°56'0 0.0
2017-Jun-26 07:28N 53°33' E 009°56'0 0.0
2017-Jun-26 06:58N 53°33' E 009°56'0 0.0
2017-Jun-26 06:28N 53°33' E 009°56'0 0.0
2017-Jun-26 05:58N 53°33' E 009°56'0 0.0
2017-Jun-26 05:28N 53°33' E 009°56'0 0.0
2017-Jun-26 04:58N 53°33' E 009°56'0 0.0
2017-Jun-26 04:25N 53°33' E 009°56'0 0.0
2017-Jun-26 03:58N 53°33' E 009°56'0 0.0
2017-Jun-26 03:28N 53°33' E 009°56'0 0.0
2017-Jun-26 02:58N 53°33' E 009°56'0 0.0
2017-Jun-26 02:28N 53°33' E 009°56'0 0.0
2017-Jun-26 01:58N 53°33' E 009°56'0 0.0
2017-Jun-26 01:28N 53°33' E 009°56'0 0.0
2017-Jun-26 00:58N 53°33' E 009°56'0 0.0
2017-Jun-26 00:28N 53°33' E 009°56'0 0.0
2017-Jun-25 23:58N 53°33' E 009°56'0 0.0
2017-Jun-25 23:28N 53°33' E 009°56'0 0.0
2017-Jun-25 22:58N 53°33' E 009°56'0 0.3
2017-Jun-25 22:30N 53°33' E 009°56'4 7.9
2017-Jun-25 22:01N 53°33' E 009°50'510.2
2017-Jun-25 21:31N 53°34' E 009°41'714.1
2017-Jun-25 21:00N 53°38' E 009°32'612.8
2017-Jun-25 20:30N 53°44' E 009°27'714.3
2017-Jun-25 20:00N 53°50' E 009°21'713.8
2017-Jun-25 19:30N 53°53' E 009°10'1 2.3
2017-Jun-25 19:01N 53°54' E 009°09'1 1.1
2017-Jun-25 18:30N 53°54' E 009°09'3 6.2
2017-Jun-25 18:00N 53°56' E 009°13'4 8.3
2017-Jun-25 17:30N 53°59' E 009°17'4 8.3
2017-Jun-25 17:00N 54°04' E 009°19'5 8.4
2017-Jun-25 16:27N 54°08' E 009°20'23 7.7
2017-Jun-25 13:29N 54°22' E 009°52'4 7.9
2017-Jun-25 12:58N 54°21' E 009°58'3 6.5
2017-Jun-25 12:30N 54°22' E 010°03'3 6.5
2017-Jun-25 12:00N 54°22' E 010°09'0 0.0
2017-Jun-25 11:30N 54°22' E 010°08'0 0.0
2017-Jun-25 11:00N 54°22' E 010°09'0 0.0
2017-Jun-25 10:30N 54°22' E 010°08'7 2.1
2017-Jun-25 07:19N 54°28' E 010°15'3 8.5
2017-Jun-25 06:55N 54°30' E 010°18'3 6.2
2017-Jun-25 06:30N 54°33' E 010°19'2 0.4
2017-Jun-25 01:14N 54°34' E 010°22'0 0.2
2017-Jun-25 00:59N 54°34' E 010°22'0 0.0
2017-Jun-25 00:29N 54°34' E 010°22'0 0.0
2017-Jun-24 23:56N 54°34' E 010°22'0 0.0
2017-Jun-24 23:29N 54°34' E 010°22'0 0.0
2017-Jun-24 23:00N 54°34' E 010°22'2 4.6
2017-Jun-24 22:30N 54°35' E 010°26'612.5
2017-Jun-24 22:00N 54°35' E 010°37'816.6
2017-Jun-24 21:30N 54°36' E 010°51'816.4
2017-Jun-24 21:00N 54°36' E 011°05'816.1
2017-Jun-24 20:30N 54°34' E 011°19'816.1
2017-Jun-24 19:59N 54°27' E 011°25'2016.5
2017-Jun-24 18:48N 54°08' E 011°14'2 0.1
2017-Jun-24 03:19N 54°08' E 011°10'310.4
2017-Jun-24 03:00N 54°11' E 011°14'16 9.8
2017-Jun-24 01:23N 54°25' E 011°26'13 9.2
2017-Jun-24 00:01N 54°34' E 011°12'010.2
2017-Jun-24 00:00N 54°34' E 011°12'510.3
2017-Jun-23 23:30N 54°35' E 011°04'510.5
2017-Jun-23 23:00N 54°35' E 010°55'610.5
2017-Jun-23 22:28N 54°34' E 010°45'48 2.3
2017-Jun-23 01:30N 54°12' E 009°32'4 8.4
2017-Jun-23 00:59N 54°10' E 009°25'9 5.5
2017-Jun-22 23:18N 54°02' E 009°18'2 7.7
2017-Jun-22 23:00N 53°59' E 009°17'4 8.2
2017-Jun-22 22:30N 53°56' E 009°13'3 6.4
2017-Jun-22 21:58N 53°54' E 009°09'0 0.0
2017-Jun-22 21:28N 53°54' E 009°09'0 0.0
2017-Jun-22 21:01N 53°54' E 009°09'0 0.1
2017-Jun-22 20:31N 53°54' E 009°09'2 3.6
2017-Jun-22 20:01N 53°53' E 009°06'0 0.4
2017-Jun-22 19:26N 53°53' E 009°06'0 0.1
2017-Jun-22 18:59N 53°53' E 009°05'0 0.2
2017-Jun-22 18:29N 53°53' E 009°05'0 0.0
2017-Jun-22 17:59N 53°53' E 009°05'0 0.1
2017-Jun-22 17:28N 53°53' E 009°05'0 0.0
2017-Jun-22 16:52N 53°53' E 009°05'0 0.9
2017-Jun-22 16:30N 53°53' E 009°05'510.8
2017-Jun-22 16:00N 53°51' E 008°56'713.8
2017-Jun-22 15:30N 53°51' E 008°45'612.5
2017-Jun-22 15:00N 53°57' E 008°39'714.4
2017-Jun-22 14:30N 53°59' E 008°27'1514.8
2017-Jun-22 13:30N 53°59' E 008°02'713.0
2017-Jun-22 12:58N 53°58' E 007°50'511.8
2017-Jun-22 12:30N 53°57' E 007°41'611.8
2017-Jun-22 12:00N 53°55' E 007°31'612.0
2017-Jun-22 11:29N 53°54' E 007°21'612.1
2017-Jun-22 11:00N 53°52' E 007°11'712.3
2017-Jun-22 10:28N 53°51' E 007°01'1212.5
2017-Jun-22 09:30N 53°48' E 006°41'712.9
2017-Jun-22 08:57N 53°46' E 006°29'612.9
2017-Jun-22 08:29N 53°45' E 006°19'713.8
2017-Jun-22 08:00N 53°42' E 006°08'713.8
2017-Jun-22 07:29N 53°40' E 005°57'714.2
2017-Jun-22 07:00N 53°38' E 005°46'714.7
2017-Jun-22 06:31N 53°36' E 005°35'714.6
2017-Jun-22 06:01N 53°34' E 005°23'814.9
2017-Jun-22 05:30N 53°31' E 005°11'714.7
2017-Jun-22 05:01N 53°29' E 004°59'815.1
2017-Jun-22 04:31N 53°26' E 004°48'714.5
2017-Jun-22 04:00N 53°20' E 004°40'815.4
2017-Jun-22 03:31N 53°13' E 004°34'815.4
2017-Jun-22 03:01N 53°07' E 004°27'815.1
2017-Jun-22 02:31N 53°01' E 004°20'815.5
2017-Jun-22 02:01N 52°53' E 004°15'714.7
2017-Jun-22 01:31N 52°47' E 004°08'714.0
2017-Jun-22 01:00N 52°43' E 003°59'917.5
2017-Jun-22 00:30N 52°36' E 003°50'918.9
2017-Jun-22 00:00N 52°29' E 003°40'1019.1
2017-Jun-21 23:30N 52°22' E 003°30'918.9
2017-Jun-21 23:00N 52°14' E 003°19'918.7
2017-Jun-21 22:30N 52°08' E 003°08'918.4
2017-Jun-21 22:00N 52°03' E 002°56'918.0
2017-Jun-21 21:30N 51°58' E 002°44'917.6
2017-Jun-21 21:00N 51°54' E 002°31'917.0
2017-Jun-21 20:27N 51°48' E 002°19'816.4
2017-Jun-21 20:00N 51°43' E 002°10'816.1
2017-Jun-21 19:29N 51°37' E 002°01'816.2
2017-Jun-21 19:00N 51°32' E 001°51'815.7
2017-Jun-21 18:30N 51°25' E 001°46'815.2
2017-Jun-21 18:00N 51°18' E 001°42'714.3
2017-Jun-21 17:30N 51°12' E 001°37'713.9
2017-Jun-21 17:00N 51°07' E 001°28'6 1.0
2017-Jun-21 11:13N 51°07' E 001°19'0 0.0
2017-Jun-21 10:49N 51°07' E 001°19'0 0.0
2017-Jun-21 10:28N 51°07' E 001°19'0 0.0
2017-Jun-21 09:49N 51°07' E 001°19'0 0.0
2017-Jun-21 09:19N 51°07' E 001°19'0 0.0
2017-Jun-21 08:52N 51°07' E 001°19'0 0.0
2017-Jun-21 08:22N 51°07' E 001°19'0 0.0
2017-Jun-21 07:01N 51°07' E 001°19'0 0.0
2017-Jun-21 06:52N 51°07' E 001°19'0 0.0
2017-Jun-21 06:10N 51°07' E 001°19'0 0.0
2017-Jun-21 05:55N 51°07' E 001°19'0 0.0
2017-Jun-21 05:19N 51°07' E 001°19'0 0.0
2017-Jun-21 04:56N 51°07' E 001°19'0 0.2
2017-Jun-21 04:26N 51°07' E 001°20'3 7.6
2017-Jun-21 04:00N 51°07' E 001°25'611.1
2017-Jun-21 03:30N 51°09' E 001°33'815.6
2017-Jun-21 03:00N 51°15' E 001°41'917.3
2017-Jun-21 02:31N 51°24' E 001°45'917.4
2017-Jun-21 02:00N 51°31' E 001°51'816.1
2017-Jun-21 01:31N 51°38' E 001°58'816.2
2017-Jun-21 01:00N 51°44' E 002°08'816.1
2017-Jun-21 00:30N 51°50' E 002°17'816.0
2017-Jun-21 00:01N 51°55' E 002°26'714.3
2017-Jun-20 23:30N 52°02' E 002°27'815.7
2017-Jun-20 23:00N 52°10' E 002°27'815.8
2017-Jun-20 22:30N 52°18' E 002°27'816.0
2017-Jun-20 22:00N 52°26' E 002°27'612.5
2017-Jun-20 21:30N 52°32' E 002°27'612.3
2017-Jun-20 21:00N 52°38' E 002°27'612.8
2017-Jun-20 20:30N 52°45' E 002°27'612.9
2017-Jun-20 20:00N 52°51' E 002°27'713.2
2017-Jun-20 19:30N 52°58' E 002°27'713.3
2017-Jun-20 19:00N 53°05' E 002°27'713.5
2017-Jun-20 18:31N 53°11' E 002°27'713.7
2017-Jun-20 18:01N 53°18' E 002°27'713.7
2017-Jun-20 17:31N 53°25' E 002°27'713.7
2017-Jun-20 17:00N 53°32' E 002°27'613.2
2017-Jun-20 16:30N 53°37' E 002°19'713.3
2017-Jun-20 16:00N 53°42' E 002°11'713.4
2017-Jun-20 15:30N 53°46' E 002°04'713.3
2017-Jun-20 15:00N 53°51' E 001°56'1513.1
2017-Jun-20 13:52N 54°02' E 001°38'513.0
2017-Jun-20 13:30N 54°05' E 001°32'3213.0
2017-Jun-20 11:04N 54°31' E 001°01'113.2
2017-Jun-20 11:00N 54°32' E 001°00'1313.3
2017-Jun-20 10:03N 54°43' E 000°51'113.0
2017-Jun-20 09:59N 54°44' E 000°50'713.0
2017-Jun-20 09:28N 54°50' E 000°45'613.0
2017-Jun-20 08:59N 54°56' E 000°40'712.9
2017-Jun-20 08:24N 55°03' E 000°35'712.7
2017-Jun-20 07:51N 55°09' E 000°30'412.7
2017-Jun-20 07:30N 55°13' E 000°26'612.8
2017-Jun-20 07:00N 55°19' E 000°22'3212.9
2017-Jun-20 04:29N 55°48' W 000°03'1412.9
2017-Jun-20 03:24N 56°01' W 000°13'1513.0
2017-Jun-20 02:14N 56°14' W 000°25'313.0
2017-Jun-20 02:00N 56°17' W 000°28'613.1
2017-Jun-20 01:30N 56°23' W 000°33'612.9
2017-Jun-20 01:00N 56°29' W 000°37'1013.7
2017-Jun-20 00:15N 56°38' W 000°45'417.6
2017-Jun-20 00:00N 56°42' W 000°48'917.7
2017-Jun-19 23:30N 56°50' W 000°55'1017.9
2017-Jun-19 22:57N 56°59' W 001°03'3318.0
2017-Jun-19 21:08N 57°29' W 001°29'218.6
2017-Jun-19 21:01N 57°30' W 001°31'67 3.0
2017-Jun-18 22:57N 58°29' W 002°33'5 9.7
2017-Jun-18 22:25N 58°34' W 002°30'4 9.8
2017-Jun-18 22:00N 58°38' W 002°28'610.1
2017-Jun-18 21:24N 58°44' W 002°28'510.7
2017-Jun-18 20:55N 58°49' W 002°29'512.6
2017-Jun-18 20:31N 58°54' W 002°30'714.4
2017-Jun-18 19:59N 58°59' W 002°40'715.3
2017-Jun-18 19:30N 59°01' W 002°54'2 4.5
2017-Jun-18 18:58N 59°00' W 002°58'0 0.0
2017-Jun-18 18:28N 59°00' W 002°58'0 0.0
2017-Jun-18 17:58N 59°00' W 002°58'0 0.0
2017-Jun-18 17:19N 59°00' W 002°58'0 0.0
2017-Jun-18 16:58N 59°00' W 002°58'0 0.0
2017-Jun-18 16:25N 59°00' W 002°58'0 0.0
2017-Jun-18 15:55N 59°00' W 002°58'0 0.0
2017-Jun-18 15:16N 59°00' W 002°58'0 0.0
2017-Jun-18 14:58N 59°00' W 002°58'0 0.0
2017-Jun-18 13:58N 59°00' W 002°58'0 0.0
2017-Jun-18 13:28N 59°00' W 002°58'0 0.0
2017-Jun-18 12:58N 59°00' W 002°58'0 0.0
2017-Jun-18 12:28N 59°00' W 002°58'0 0.0
2017-Jun-18 11:58N 59°00' W 002°58'0 0.0
2017-Jun-18 11:28N 59°00' W 002°58'0 0.0
2017-Jun-18 10:58N 59°00' W 002°58'0 0.0
2017-Jun-18 10:28N 59°00' W 002°58'0 0.0
2017-Jun-18 09:58N 59°00' W 002°58'0 0.0
2017-Jun-18 09:28N 59°00' W 002°58'0 0.0
2017-Jun-18 08:58N 59°00' W 002°58'0 0.0
2017-Jun-18 08:28N 59°00' W 002°58'0 0.0
2017-Jun-18 07:58N 59°00' W 002°58'0 0.0
2017-Jun-18 07:28N 59°00' W 002°58'0 0.0
2017-Jun-18 06:58N 59°00' W 002°58'0 0.0
2017-Jun-18 06:28N 59°00' W 002°58'0 0.0
2017-Jun-18 05:58N 59°00' W 002°58'0 0.0
2017-Jun-18 05:28N 59°00' W 002°58'0 0.0
2017-Jun-18 04:58N 59°00' W 002°58'0 0.0
2017-Jun-18 04:28N 59°00' W 002°58'0 0.0
2017-Jun-18 03:58N 59°00' W 002°58'0 0.0
2017-Jun-18 03:28N 59°00' W 002°58'0 0.0
2017-Jun-18 02:58N 59°00' W 002°58'0 0.0
2017-Jun-18 02:28N 59°00' W 002°58'0 0.0
2017-Jun-18 01:58N 59°00' W 002°58'0 0.0
2017-Jun-18 01:28N 59°00' W 002°58'0 0.0
2017-Jun-18 00:58N 59°00' W 002°58'0 0.0
2017-Jun-18 00:28N 59°00' W 002°58'0 0.0
2017-Jun-17 23:58N 59°00' W 002°58'0 0.0
2017-Jun-17 23:19N 59°00' W 002°58'0 0.0
2017-Jun-17 22:58N 59°00' W 002°58'0 0.0
2017-Jun-17 22:25N 59°00' W 002°58'0 0.0
2017-Jun-17 21:58N 59°00' W 002°58'0 0.0
2017-Jun-17 21:28N 59°00' W 002°58'0 0.0
2017-Jun-17 20:58N 59°00' W 002°58'0 0.0
2017-Jun-17 20:28N 59°00' W 002°58'0 0.0
2017-Jun-17 19:52N 59°00' W 002°58'0 0.0
2017-Jun-17 19:28N 59°00' W 002°58'0 0.0
2017-Jun-17 18:58N 59°00' W 002°58'0 0.0
2017-Jun-17 18:28N 59°00' W 002°58'0 0.0
2017-Jun-17 18:00N 59°00' W 002°58'1 1.0
2017-Jun-17 17:30N 59°01' W 002°58'5 9.6
2017-Jun-17 17:00N 59°00' W 002°49'612.8
2017-Jun-17 16:30N 58°58' W 002°37'714.7
2017-Jun-17 16:00N 58°51' W 002°40'917.1
2017-Jun-17 15:30N 58°45' W 002°51'816.2
2017-Jun-17 15:00N 58°43' W 003°06'1818.3
2017-Jun-17 14:00N 58°43' W 003°42'918.8
2017-Jun-17 13:30N 58°43' W 003°60'918.5
2017-Jun-17 13:00N 58°42' W 004°17'3416.8
2017-Jun-17 10:59N 58°32' W 005°20'2517.9
2017-Jun-17 09:35N 58°10' W 005°40'417.8
2017-Jun-17 09:21N 58°06' W 005°44'2517.6
2017-Jun-17 07:55N 57°42' W 006°01'1017.7
2017-Jun-17 07:20N 57°32' W 006°04'617.9
2017-Jun-17 07:00N 57°26' W 006°07'10 5.6
2017-Jun-17 05:16N 57°36' W 006°06'31 4.2
2017-Jun-16 21:49N 57°05' W 006°18'14 9.9
2017-Jun-16 20:24N 57°02' W 005°53'511.4
2017-Jun-16 19:55N 57°06' W 005°47'410.5
2017-Jun-16 19:30N 57°08' W 005°40'4 6.1
2017-Jun-16 18:50N 57°06' W 005°33'511.7
2017-Jun-16 18:22N 57°08' W 005°43'512.2
2017-Jun-16 17:59N 57°05' W 005°49'34 6.1
2017-Jun-16 12:24N 56°30' W 005°43'4 9.2
2017-Jun-16 12:00N 56°28' W 005°39'611.7
2017-Jun-16 11:30N 56°22' W 005°40'  

Dump ship's entire track history